Time;durP1;ratioP1;P1;durP2;ratioP2;P2;SDS_P1;SDS_P2;PMS_P1;PMS_P2;Temp;Humidity;BMP_temperature;BMP_pressure;BME280_temperature;BME280_humidity;BME280_pressure;Samples;Min_cycle;Max_cycle;Signal;HPM_P1;HPM_P2
2022/06/03 00:01:23;;;;;;;6.95;4.85;;;;;;;8.96;70.46;100983.17;1613734;88;25857;-71
2022/06/03 00:04:12;;;;;;;5.90;5.30;;;;;;;8.95;70.64;100978.05;1616423;88;27361;-70
2022/06/03 00:07:00;;;;;;;5.97;5.08;;;;;;;8.92;70.68;100982.13;1623152;88;25691;-70
2022/06/03 00:09:53;;;;;;;5.35;4.85;;;;;;;8.90;70.55;100986.97;1613076;88;25841;-69
2022/06/03 00:12:54;;;;;;;7.35;5.72;;;;;;;8.87;70.60;100984.03;1612279;88;25775;-70
2022/06/03 00:15:58;;;;;;;7.53;5.70;;;;;;;8.86;70.68;100991.88;1582254;89;25747;-70
2022/06/03 00:19:11;;;;;;;5.72;5.22;;;;;;;8.83;70.46;100988.39;1604102;88;27331;-70
2022/06/03 00:21:47;;;;;;;6.72;5.47;;;;;;;8.79;70.63;100991.64;1601556;89;25813;-70
2022/06/03 00:24:42;;;;;;;6.80;5.30;;;;;;;8.76;70.50;100996.80;1587231;89;25691;-69
2022/06/03 00:27:37;;;;;;;6.60;5.33;;;;;;;8.72;70.44;100997.09;1577180;89;27538;-70
2022/06/03 00:30:29;;;;;;;6.97;5.45;;;;;;;8.70;70.49;101001.94;1612155;88;25782;-69
2022/06/03 00:33:43;;;;;;;6.28;5.53;;;;;;;8.66;70.39;100993.61;1612062;89;27326;-68
2022/06/03 00:37:02;;;;;;;5.12;4.70;;;;;;;8.62;70.75;100996.61;1611270;88;25459;-68
2022/06/03 00:39:48;;;;;;;8.73;5.90;;;;;;;8.60;70.63;100995.53;1600307;87;25878;-70
2022/06/03 00:42:54;;;;;;;6.20;5.60;;;;;;;8.56;70.55;100990.45;1618487;87;25770;-69
2022/06/03 00:45:47;;;;;;;6.28;5.67;;;;;;;8.53;70.49;100991.00;1600916;89;25677;-69
2022/06/03 00:48:29;;;;;;;7.55;5.80;;;;;;;8.51;70.57;100991.00;1627714;87;27434;-69
2022/06/03 00:51:25;;;;;;;6.22;5.45;;;;;;;8.46;70.94;100986.42;1603180;87;25928;-69
2022/06/03 00:54:11;;;;;;;6.22;5.47;;;;;;;8.41;71.04;100983.20;1610098;87;25889;-69
2022/06/03 00:57:09;;;;;;;6.83;5.80;;;;;;;8.35;71.49;100984.30;1664589;85;25822;-68
2022/06/03 00:59:53;;;;;;;7.15;5.90;;;;;;;8.31;71.73;100987.82;1652769;85;25793;-69
2022/06/03 01:02:52;;;;;;;8.50;6.00;;;;;;;8.23;71.86;100985.97;1636387;87;27367;-69
2022/06/03 01:05:46;;;;;;;6.90;6.20;;;;;;;8.18;72.12;100987.34;1603880;87;25915;-69
2022/06/03 01:08:33;;;;;;;8.73;5.78;;;;;;;8.15;72.29;100994.62;1607386;88;25743;-68
2022/06/03 01:11:20;;;;;;;7.60;5.55;;;;;;;8.12;71.91;100997.89;1616059;88;25719;-68
2022/06/03 01:14:13;;;;;;;9.93;5.80;;;;;;;8.10;71.97;100996.53;1640441;86;25660;-69
2022/06/03 01:16:51;;;;;;;6.85;6.15;;;;;;;8.07;72.18;100999.77;1655551;86;27454;-70
2022/06/03 01:19:51;;;;;;;9.88;6.53;;;;;;;8.00;72.01;100994.16;1660492;86;25844;-69
2022/06/03 01:23:00;;;;;;;7.12;6.12;;;;;;;7.97;72.05;100993.90;1653461;86;25635;-69
2022/06/03 01:25:59;;;;;;;9.13;6.37;;;;;;;7.93;71.90;100995.51;1649721;86;25706;-71
2022/06/03 01:29:06;;;;;;;7.33;5.95;;;;;;;7.88;71.87;100992.28;1658940;86;25665;-68
2022/06/03 01:31:50;;;;;;;8.08;5.97;;;;;;;7.83;72.09;100994.47;1658286;86;27406;-69
2022/06/03 01:34:44;;;;;;;8.85;6.35;;;;;;;7.78;72.08;100989.09;1654730;86;25802;-69
2022/06/03 01:37:31;;;;;;;6.42;5.80;;;;;;;7.75;71.96;100990.18;1611751;89;25806;-68
2022/06/03 01:40:37;;;;;;;7.15;6.17;;;;;;;7.73;72.08;100983.72;1617974;87;25801;-69
2022/06/03 01:43:39;;;;;;;6.95;6.25;;;;;;;7.71;71.95;100992.59;1630446;87;25707;-69
2022/06/03 01:46:17;;;;;;;7.30;6.33;;;;;;;7.70;72.66;100988.84;1623299;88;29587;-69
2022/06/03 01:49:16;;;;;;;7.65;6.08;;;;;;;7.65;72.64;100985.61;1646373;86;25684;-69
2022/06/03 01:52:10;;;;;;;7.50;6.33;;;;;;;7.62;72.80;100986.95;1622632;88;25513;-68
2022/06/03 01:55:20;;;;;;;8.85;6.55;;;;;;;7.60;72.41;100989.11;1639184;86;26416;-68
2022/06/03 01:58:23;;;;;;;;;;;;;;;7.59;72.56;100989.38;1644378;86;25778;-68
2022/06/03 02:01:07;;;;;;;7.97;6.70;;;;;;;7.56;72.58;100998.00;1651155;85;27410;-69
2022/06/03 02:03:53;;;;;;;10.05;6.78;;;;;;;7.52;72.98;100993.70;1652833;85;26353;-68
2022/06/03 02:07:08;;;;;;;8.85;6.90;;;;;;;7.49;72.84;100998.27;1647558;85;25819;-69
2022/06/03 02:10:14;;;;;;;8.38;6.33;;;;;;;7.46;73.10;101002.87;1636452;87;25723;-68
2022/06/03 02:13:10;;;;;;;8.43;6.78;;;;;;;7.42;73.11;101001.78;1669003;85;25745;-68
2022/06/03 02:15:50;;;;;;;10.93;8.15;;;;;;;7.39;73.17;100995.59;1704201;83;27595;-68
2022/06/03 02:18:30;;;;;;;8.63;7.20;;;;;;;7.38;73.46;100998.03;1708767;83;25692;-68
2022/06/03 02:21:19;;;;;;;9.35;6.65;;;;;;;7.35;73.72;100999.36;1713561;83;25803;-69
2022/06/03 02:24:17;;;;;;;11.95;6.55;;;;;;;7.33;73.86;100996.14;1721967;82;25691;-68
2022/06/03 02:27:18;;;;;;;9.28;6.60;;;;;;;7.29;73.89;100998.56;1708486;83;25739;-68
2022/06/03 02:30:26;;;;;;;7.47;5.83;;;;;;;7.28;74.14;101002.32;1717861;81;33582;-68
2022/06/03 02:33:35;;;;;;;10.08;6.58;;;;;;;7.27;73.93;100997.20;1711474;83;25665;-70
2022/06/03 02:36:32;;;;;;;8.40;6.12;;;;;;;7.27;73.78;100999.37;1711002;83;25740;-68
2022/06/03 02:39:45;;;;;;;11.43;6.08;;;;;;;7.25;73.61;100998.02;1708244;84;26528;-68
2022/06/03 02:42:39;;;;;;;9.78;7.20;;;;;;;7.24;73.57;100997.77;1708973;83;25858;-69
2022/06/03 02:45:23;;;;;;;10.25;6.47;;;;;;;7.23;73.61;101001.52;1707892;82;27517;-68
2022/06/03 02:48:00;;;;;;;8.85;6.83;;;;;;;7.23;74.11;101006.36;1707275;84;27415;-68
2022/06/03 02:50:41;;;;;;;9.00;6.62;;;;;;;7.22;73.87;101005.27;1715932;83;25720;-69
2022/06/03 02:53:38;;;;;;;8.28;7.03;;;;;;;7.21;74.11;101011.20;1711148;83;26303;-70
2022/06/03 02:56:36;;;;;;;11.25;6.87;;;;;;;7.20;74.51;101013.64;1719695;83;25604;-68
2022/06/03 02:59:40;;;;;;;11.22;7.55;;;;;;;7.21;74.46;101011.75;1692060;84;28245;-68
2022/06/03 03:02:45;;;;;;;9.28;6.58;;;;;;;7.19;74.58;101021.44;1694703;84;25732;-69
2022/06/03 03:05:40;;;;;;;8.70;7.10;;;;;;;7.19;74.40;101021.44;1711175;83;25660;-69
2022/06/03 03:08:45;;;;;;;9.58;6.92;;;;;;;7.18;74.50;101025.73;1617805;88;25857;-68
2022/06/03 03:11:20;;;;;;;9.33;7.25;;;;;;;7.19;74.59;101029.50;1644489;87;25540;-70
2022/06/03 03:14:20;;;;;;;10.48;7.90;;;;;;;7.20;75.15;101027.09;1645704;86;27548;-68
2022/06/03 03:17:10;;;;;;;13.83;7.78;;;;;;;7.23;75.30;101035.16;1643273;87;25677;-68
2022/06/03 03:20:08;;;;;;;;;;;;;;;7.24;75.49;101036.23;1680306;85;25788;-69
2022/06/03 03:23:22;;;;;;;10.58;7.40;;;;;;;7.29;75.98;101044.86;1678375;84;26314;-68
2022/06/03 03:26:08;;;;;;;13.38;8.13;;;;;;;7.32;76.00;101048.88;1677770;85;25666;-69
2022/06/03 03:28:49;;;;;;;10.58;7.65;;;;;;;7.35;76.22;101049.15;1676565;85;28286;-68
2022/06/03 03:31:47;;;;;;;10.30;8.23;;;;;;;7.37;76.43;101049.72;1678149;85;25788;-68
2022/06/03 03:34:30;;;;;;;12.35;9.10;;;;;;;7.41;76.63;101052.12;1677796;85;25841;-68
2022/06/03 03:37:14;;;;;;;12.58;9.25;;;;;;;7.47;76.90;101053.75;1659957;85;26525;-68
2022/06/03 03:40:12;;;;;;;16.77;12.30;;;;;;;7.52;77.26;101054.27;1678386;85;25605;-70
2022/06/03 03:43:00;;;;;;;13.68;11.28;;;;;;;7.59;77.63;101064.77;1674042;85;28090;-69
2022/06/03 03:46:06;;;;;;;17.10;13.83;;;;;;;7.67;78.29;101073.11;1708236;82;25789;-69
2022/06/03 03:48:57;;;;;;;20.80;14.73;;;;;;;7.78;79.50;101079.31;1581074;89;25806;-68
2022/06/03 03:52:10;;;;;;;19.87;15.75;;;;;;;7.89;79.66;101075.27;1578052;89;25818;-69
2022/06/03 03:55:30;;;;;;;26.35;17.15;;;;;;;7.99;80.29;101080.64;1581483;89;25832;-70
2022/06/03 03:58:29;;;;;;;20.70;15.72;;;;;;;8.12;80.31;101083.29;1595477;89;28131;-70
2022/06/03 04:01:41;;;;;;;21.03;15.83;;;;;;;8.27;80.77;101082.45;1603022;88;25686;-69
2022/06/03 04:04:22;;;;;;;20.00;14.87;;;;;;;8.39;81.19;101083.78;1631499;86;25769;-69
2022/06/03 04:07:36;;;;;;;17.15;14.78;;;;;;;8.51;80.83;101080.80;1604186;88;25743;-69
2022/06/03 04:10:40;;;;;;;21.10;15.30;;;;;;;8.64;81.42;101086.12;1642296;87;25929;-69
2022/06/03 04:13:54;;;;;;;18.23;14.00;;;;;;;8.79;81.79;101079.86;1638404;87;27386;-69
2022/06/03 04:16:49;;;;;;;18.95;14.18;;;;;;;8.93;81.72;101080.05;1591507;88;25975;-68
2022/06/03 04:20:00;;;;;;;16.57;13.65;;;;;;;9.11;81.95;101089.41;1601831;88;26491;-68
2022/06/03 04:23:08;;;;;;;18.85;13.95;;;;;;;9.25;81.94;101089.03;1613901;88;25778;-68
2022/06/03 04:26:01;;;;;;;16.85;12.68;;;;;;;9.43;82.11;101092.97;1624443;86;25700;-68
2022/06/03 04:28:47;;;;;;;16.62;12.98;;;;;;;9.58;82.11;101090.67;1636553;87;27349;-69
2022/06/03 04:31:56;;;;;;;15.88;12.18;;;;;;;9.73;81.91;101092.45;1625448;87;25560;-68
2022/06/03 04:35:03;;;;;;;14.70;11.77;;;;;;;9.88;81.94;101095.57;1644155;87;25848;-69
2022/06/03 04:38:13;;;;;;;14.45;10.85;;;;;;;10.06;81.80;101095.38;1624150;87;25879;-70
2022/06/03 04:41:20;;;;;;;15.98;11.48;;;;;;;10.23;82.17;101101.17;1642023;87;25831;-68
2022/06/03 04:44:11;;;;;;;16.02;10.08;;;;;;;10.43;81.88;101100.70;1625286;87;27187;-69
2022/06/03 04:46:55;;;;;;;10.55;9.00;;;;;;;10.61;81.75;101095.10;1637712;87;25789;-69
2022/06/03 04:50:04;;;;;;;11.48;8.90;;;;;;;10.78;81.03;101101.38;1587896;90;25822;-69
2022/06/03 04:52:48;;;;;;;10.15;8.15;;;;;;;10.94;80.79;101100.63;1601218;88;25796;-69
2022/06/03 04:56:03;;;;;;;8.58;7.42;;;;;;;11.12;80.67;101105.80;1564878;89;25873;-69
2022/06/03 04:58:58;;;;;;;7.58;6.78;;;;;;;11.28;79.99;101107.73;1593805;89;27873;-70
2022/06/03 05:01:41;;;;;;;9.43;6.95;;;;;;;11.46;79.32;101114.22;1570369;91;25800;-70
2022/06/03 05:04:33;;;;;;;7.75;6.97;;;;;;;11.62;78.39;101114.80;1544573;91;25848;-69
2022/06/03 05:07:20;;;;;;;6.53;5.92;;;;;;;11.76;77.69;101123.24;1537128;91;26272;-71
2022/06/03 05:10:12;;;;;;;7.80;6.55;;;;;;;11.91;76.96;101113.25;1552037;90;25413;-70
2022/06/03 05:13:14;;;;;;;6.65;5.35;;;;;;;12.06;76.67;101123.03;1579759;90;29763;-70
2022/06/03 05:16:07;;;;;;;8.13;5.75;;;;;;;12.20;75.89;101115.72;1522572;93;25786;-69
2022/06/03 05:18:44;;;;;;;8.60;5.80;;;;;;;12.37;75.17;101123.27;1547021;92;25966;-69
2022/06/03 05:21:49;;;;;;;6.90;5.37;;;;;;;12.53;74.99;101123.77;1545398;92;25717;-70
2022/06/03 05:24:53;;;;;;;5.65;5.10;;;;;;;12.66;74.28;101124.31;1545356;92;25824;-69
2022/06/03 05:27:58;;;;;;;6.85;4.85;;;;;;;12.85;73.85;101120.12;1626409;86;26757;-68
2022/06/03 05:30:59;;;;;;;6.15;4.42;;;;;;;13.05;73.39;101123.52;1627519;87;25736;-69
2022/06/03 05:33:52;;;;;;;5.22;4.70;;;;;;;13.25;72.99;101121.70;1681576;82;25657;-69
2022/06/03 05:36:35;;;;;;;6.78;4.70;;;;;;;13.47;72.60;101120.69;1707466;83;25639;-70
2022/06/03 05:39:26;;;;;;;6.95;4.85;;;;;;;13.69;72.18;101124.80;1637347;86;25698;-69
2022/06/03 05:42:37;;;;;;;6.72;4.35;;;;;;;13.90;71.83;101125.08;1653928;86;27415;-69
2022/06/03 05:45:26;;;;;;;4.62;4.10;;;;;;;14.13;71.52;101124.50;1624439;88;26178;-70
2022/06/03 05:48:28;;;;;;;4.25;3.83;;;;;;;14.39;70.47;101121.87;1671338;85;25710;-69
2022/06/03 05:51:26;;;;;;;5.08;3.90;;;;;;;14.62;69.79;101124.54;1679123;85;26376;-69
2022/06/03 05:54:17;;;;;;;5.20;4.30;;;;;;;14.87;69.52;101120.28;1667196;85;25746;-70
2022/06/03 05:56:52;;;;;;;5.60;3.85;;;;;;;15.12;68.73;101124.73;1675569;85;27338;-70
2022/06/03 06:00:15;;;;;;;4.10;3.37;;;;;;;15.37;67.80;101127.78;1678432;85;25761;-71
2022/06/03 06:02:52;;;;;;;3.50;3.20;;;;;;;15.58;67.46;101123.83;1645114;86;25764;-68
2022/06/03 06:05:44;;;;;;;4.85;3.37;;;;;;;15.85;65.46;101128.14;1641503;86;25828;-70
2022/06/03 06:08:30;;;;;;;5.22;3.30;;;;;;;16.02;64.52;101130.03;1710011;83;25675;-69
2022/06/03 06:11:08;;;;;;;3.70;3.05;;;;;;;16.23;64.60;101136.97;1693291;83;28274;-69
2022/06/03 06:14:05;;;;;;;3.67;3.37;;;;;;;16.47;63.65;101136.38;1700002;82;25819;-69
2022/06/03 06:16:45;;;;;;;4.45;3.20;;;;;;;16.68;62.11;101139.73;1743619;80;25689;-70
2022/06/03 06:19:48;;;;;;;4.35;3.00;;;;;;;16.90;61.53;101140.04;1773263;80;25679;-69
2022/06/03 06:22:28;;;;;;;3.20;2.90;;;;;;;17.07;60.35;101140.49;1754862;80;25694;-69
2022/06/03 06:25:03;;;;;;;5.65;2.87;;;;;;;17.29;59.18;101145.63;1752269;80;27281;-69
2022/06/03 06:28:04;;;;;;;3.85;2.87;;;;;;;17.47;59.56;101143.56;1770901;80;27173;-70
2022/06/03 06:30:57;;;;;;;4.53;2.55;;;;;;;17.71;59.59;101141.48;1772026;80;25620;-70
2022/06/03 06:33:59;;;;;;;6.45;3.20;;;;;;;18.01;59.41;101142.73;1742709;80;26311;-69
2022/06/03 06:36:55;;;;;;;3.17;2.52;;;;;;;18.31;57.39;101140.41;1772360;79;25633;-70
2022/06/03 06:40:08;;;;;;;4.58;2.80;;;;;;;18.49;57.71;101139.05;1771125;80;25788;-69
2022/06/03 06:42:42;;;;;;;3.75;2.83;;;;;;;18.70;56.11;101138.13;1756409;80;25406;-70
2022/06/03 06:45:36;;;;;;;4.95;2.92;;;;;;;18.89;55.77;101139.73;1737987;82;26361;-68
2022/06/03 06:48:17;;;;;;;4.42;2.17;;;;;;;19.10;55.01;101142.88;1720840;82;25706;-68
2022/06/03 06:50:52;;;;;;;3.47;2.40;;;;;;;19.17;52.69;101137.61;1740796;82;25497;-69
2022/06/03 06:53:55;;;;;;;3.33;2.12;;;;;;;19.25;52.73;101140.00;1741271;82;27405;-69
2022/06/03 06:56:51;;;;;;;2.47;2.02;;;;;;;19.36;51.24;101134.26;1742485;82;25693;-72
2022/06/03 06:59:39;;;;;;;2.55;2.35;;;;;;;19.51;51.38;101126.66;1742728;82;25706;-72
2022/06/03 07:02:16;;;;;;;2.22;2.08;;;;;;;19.71;50.84;101128.94;1742623;82;25778;-69
2022/06/03 07:04:58;;;;;;;3.42;2.50;;;;;;;19.89;49.11;101131.41;1739168;82;25771;-68
2022/06/03 07:07:38;;;;;;;2.87;2.00;;;;;;;19.97;49.34;101130.42;1731331;82;27269;-68
2022/06/03 07:10:56;;;;;;;4.22;2.12;;;;;;;20.16;50.02;101135.25;1711146;83;25741;-68
2022/06/03 07:13:28;;;;;;;2.85;2.20;;;;;;;20.39;49.24;101131.87;1686610;83;25742;-67
2022/06/03 07:19:47;;;;;;;2.62;2.25;;;;;;;20.63;47.06;101126.19;1710119;83;25714;-70
2022/06/03 07:22:19;;;;;;;3.17;1.80;;;;;;;20.73;46.61;101127.59;1680854;83;27387;-71
2022/06/03 07:25:18;;;;;;;2.87;2.33;;;;;;;20.77;45.63;101133.98;1612554;88;25777;-68
2022/06/03 07:28:17;;;;;;;2.12;2.02;;;;;;;20.73;45.42;101121.31;1653514;85;25796;-66
2022/06/03 07:30:52;;;;;;;2.42;2.17;;;;;;;20.80;45.26;101120.88;1664887;85;32490;-65
2022/06/03 07:33:41;;;;;;;2.70;2.12;;;;;;;20.80;44.51;101118.13;1661424;83;25764;-66
2022/06/03 07:36:32;;;;;;;;;;;;;;;20.80;43.94;101123.62;1682398;83;27335;-66
2022/06/03 07:39:21;;;;;;;2.70;2.20;;;;;;;20.80;43.75;101120.88;1677024;85;25542;-65
2022/06/03 07:41:53;;;;;;;3.67;2.00;;;;;;;20.96;44.75;101120.03;1655460;85;25864;-66
2022/06/03 07:44:43;;;;;;;2.30;2.10;;;;;;;21.16;44.05;101113.98;1665832;85;25706;-66
2022/06/03 07:47:11;;;;;;;5.45;2.52;;;;;;;21.40;44.83;101117.02;1698411;82;25671;-67
2022/06/03 07:49:39;;;;;;;2.22;1.98;;;;;;;21.73;43.78;101121.23;1764580;81;27305;-65
2022/06/03 07:52:32;;;;;;;2.08;1.85;;;;;;;21.86;43.69;101110.23;1749777;81;25491;-65
2022/06/03 07:55:00;;;;;;;2.20;2.00;;;;;;;22.15;44.09;101112.11;1748035;81;25374;-65
2022/06/03 07:57:29;;;;;;;2.47;2.27;;;;;;;22.24;41.97;101123.69;1737423;81;25734;-65
2022/06/03 08:00:03;;;;;;;1.95;1.80;;;;;;;22.24;41.06;101121.53;1760366;81;26239;-65
2022/06/03 08:02:29;;;;;;;3.12;2.42;;;;;;;22.30;41.80;101120.06;1738364;81;27578;-66
2022/06/03 08:05:13;;;;;;;2.20;2.10;;;;;;;22.42;41.29;101121.83;1726600;82;25843;-66
2022/06/03 08:13:19;;;;;;;1.87;1.72;;;;;;;23.23;41.77;101115.11;1732626;80;25707;-65
2022/06/03 08:16:06;;;;;;;4.17;1.65;;;;;;;23.44;40.48;101111.20;1731632;81;27350;-65
2022/06/03 08:18:42;;;;;;;3.45;1.98;;;;;;;23.66;40.33;101109.46;1731410;81;26158;-66
2022/06/03 08:21:16;;;;;;;4.70;2.58;;;;;;;23.74;37.89;101110.34;1747080;81;25553;-65
2022/06/03 08:23:45;;;;;;;1.98;1.67;;;;;;;23.72;38.32;101114.64;1750943;81;26323;-66
2022/06/03 08:26:18;;;;;;;1.57;1.47;;;;;;;23.86;38.81;101108.70;1714812;82;25753;-66
2022/06/03 08:28:52;;;;;;;2.75;1.30;;;;;;;24.10;37.57;101120.37;1714211;82;28217;-66
2022/06/03 08:31:22;;;;;;;2.00;1.50;;;;;;;24.19;37.02;101117.27;1698889;83;25567;-66
2022/06/03 08:33:54;;;;;;;3.60;2.08;;;;;;;24.10;36.50;101109.91;1772106;80;25615;-66
2022/06/03 08:36:33;;;;;;;6.20;2.58;;;;;;;24.11;37.31;101115.63;1755126;81;26180;-66
2022/06/03 08:39:23;;;;;;;5.47;2.87;;;;;;;24.31;37.58;101105.91;1676773;85;25806;-66
2022/06/03 08:42:13;;;;;;;2.95;2.05;;;;;;;24.58;37.47;101104.36;1666011;85;28017;-67
2022/06/03 08:44:45;;;;;;;4.15;1.92;;;;;;;25.01;37.04;101099.05;1644648;87;25539;-66
2022/06/03 08:47:48;;;;;;;2.77;1.42;;;;;;;25.20;35.27;101103.50;1624464;87;25724;-67
2022/06/03 08:50:47;;;;;;;3.62;2.22;;;;;;;25.15;34.69;101093.59;1637152;87;25711;-66
2022/06/03 08:53:43;;;;;;;1.80;1.70;;;;;;;25.10;35.12;101101.48;1638306;87;25695;-66
2022/06/03 08:56:14;;;;;;;2.35;1.72;;;;;;;25.26;34.94;101100.56;1638138;87;27474;-66
2022/06/03 08:58:56;;;;;;;1.90;1.60;;;;;;;25.34;34.24;101106.33;1631698;87;25544;-65
2022/06/03 09:01:43;;;;;;;3.60;2.20;;;;;;;25.39;34.97;101102.40;1636158;87;25703;-67
2022/06/03 09:04:24;;;;;;;1.87;1.72;;;;;;;25.47;34.84;101094.88;1719997;81;25622;-66
2022/06/03 09:07:19;;;;;;;3.55;2.50;;;;;;;25.33;34.12;101098.41;1743470;81;25728;-66
2022/06/03 09:10:14;;;;;;;2.65;1.90;;;;;;;24.98;33.71;101097.86;1714141;82;28046;-65
2022/06/03 09:13:13;;;;;;;3.27;2.10;;;;;;;25.16;35.77;101092.98;1768992;81;25708;-66
2022/06/03 09:15:45;;;;;;;3.45;2.00;;;;;;;25.66;35.21;101089.00;1743578;81;25754;-65
2022/06/03 09:18:29;;;;;;;3.20;2.65;;;;;;;26.02;35.07;101107.08;1757608;81;25687;-65
2022/06/03 09:21:12;;;;;;;3.37;2.42;;;;;;;26.13;34.28;101095.98;1732074;81;26697;-65
2022/06/03 09:23:54;;;;;;;2.47;2.27;;;;;;;26.02;33.98;101097.38;1764269;81;27375;-66
2022/06/03 09:26:37;;;;;;;2.15;2.05;;;;;;;25.97;34.04;101090.06;1753053;81;25475;-67
2022/06/03 09:29:06;;;;;;;3.58;2.42;;;;;;;25.89;34.01;101087.23;1746852;81;25581;-68
2022/06/03 09:31:39;;;;;;;7.85;2.85;;;;;;;25.57;33.32;101087.80;1763706;81;25697;-68
2022/06/03 09:34:08;;;;;;;2.90;2.22;;;;;;;25.49;34.97;101089.77;1748951;81;25466;-67
2022/06/03 09:36:34;;;;;;;;;;;;;;;25.64;34.47;101081.69;1771876;81;29486;-68
2022/06/03 09:39:08;;;;;;;2.95;2.08;;;;;;;25.70;33.96;101083.47;1769070;81;25538;-67
2022/06/03 09:41:39;;;;;;;2.27;2.02;;;;;;;25.61;33.92;101086.62;1742661;81;25778;-67
2022/06/03 09:44:09;;;;;;;2.30;2.10;;;;;;;25.44;34.22;101086.00;1768466;81;26066;-67
2022/06/03 09:46:38;;;;;;;3.33;2.17;;;;;;;25.51;34.10;101084.63;1752244;81;25668;-67
2022/06/03 09:49:05;;;;;;;1.98;1.87;;;;;;;25.35;34.75;101080.81;1738291;82;27400;-68
2022/06/03 09:52:03;;;;;;;2.35;2.15;;;;;;;25.09;33.58;101087.43;1769000;81;25707;-67
2022/06/03 09:54:36;;;;;;;1.98;1.77;;;;;;;24.69;34.62;101087.81;1767921;81;26172;-68
2022/06/03 09:57:11;;;;;;;4.83;2.47;;;;;;;24.59;35.46;101083.23;1746447;81;25637;-68
2022/06/03 09:59:41;;;;;;;2.65;2.25;;;;;;;24.80;35.21;101088.08;1732612;81;25707;-67
2022/06/03 10:02:08;;;;;;;2.45;2.22;;;;;;;24.59;35.58;101085.22;1758008;81;27296;-67
2022/06/03 10:04:35;;;;;;;1.80;1.70;;;;;;;24.45;35.08;101079.55;1755240;81;25698;-67
2022/06/03 10:07:02;;;;;;;2.08;1.87;;;;;;;24.26;34.27;101076.47;1748975;80;25599;-68
2022/06/03 10:18:08;;;;;;;1.95;1.75;;;;;;;24.75;34.24;101074.62;1721471;82;27155;-67
2022/06/03 10:20:36;;;;;;;4.17;2.10;;;;;;;24.78;35.36;101068.31;1740941;82;25677;-67
2022/06/03 10:23:08;;;;;;;2.15;1.77;;;;;;;25.24;35.40;101065.53;1764498;80;26302;-70
2022/06/03 10:25:46;;;;;;;2.08;1.87;;;;;;;25.77;33.66;101064.08;1741872;80;25673;-69
2022/06/03 10:28:15;;;;;;;2.17;1.98;;;;;;;25.81;34.20;101064.07;1714489;83;27348;-67
2022/06/03 10:30:44;;;;;;;1.80;1.70;;;;;;;25.80;31.93;101059.73;1713069;83;25715;-66
2022/06/03 10:33:22;;;;;;;2.60;1.75;;;;;;;25.96;33.93;101047.67;1717825;83;25687;-65
2022/06/03 10:35:50;;;;;;;2.10;1.90;;;;;;;26.74;34.11;101039.03;1721335;83;25683;-66
2022/06/03 10:38:21;;;;;;;3.05;1.70;;;;;;;27.47;32.75;101046.42;1716203;83;25857;-66
2022/06/03 10:40:52;;;;;;;3.95;1.82;;;;;;;27.61;31.11;101046.31;1716684;83;27628;-65
2022/06/03 10:43:30;;;;;;;3.10;1.37;;;;;;;27.71;32.54;101039.88;1712413;83;25482;-68
2022/06/03 10:46:13;;;;;;;1.70;1.60;;;;;;;28.34;32.12;101038.94;1717097;83;25583;-68
2022/06/03 10:48:40;;;;;;;3.08;1.80;;;;;;;28.66;30.90;101042.78;1714898;83;25877;-68
2022/06/03 11:02:39;;;;;;;1.92;1.82;;;;;;;27.82;31.55;101051.51;1635609;87;25751;-69
2022/06/03 11:05:28;;;;;;;3.75;2.20;;;;;;;27.97;31.67;101043.87;1636980;87;25736;-69
2022/06/03 11:08:05;;;;;;;2.75;1.62;;;;;;;28.43;32.31;101032.27;1636793;87;27418;-68
2022/06/03 11:10:47;;;;;;;1.67;1.57;;;;;;;28.99;31.87;101034.02;1636352;87;25737;-69
2022/06/03 11:13:27;;;;;;;2.10;1.67;;;;;;;28.90;30.09;101035.94;1636257;87;26356;-67
2022/06/03 11:15:55;;;;;;;2.90;1.50;;;;;;;29.08;30.48;101037.07;1636405;87;25746;-66
2022/06/03 11:18:32;;;;;;;2.67;1.55;;;;;;;29.35;30.06;101030.76;1636852;87;25791;-66
2022/06/03 11:21:03;;;;;;;3.02;1.50;;;;;;;29.18;29.98;101025.02;1665479;85;27362;-68
2022/06/03 11:23:30;;;;;;;2.37;1.72;;;;;;;28.97;30.71;101020.52;1647819;86;25784;-66
2022/06/03 11:26:00;;;;;;;1.70;1.60;;;;;;;29.14;30.04;101017.91;1665544;85;25809;-65
2022/06/03 11:28:34;;;;;;;1.45;1.35;;;;;;;29.05;29.47;101010.86;1668630;85;25680;-66
2022/06/03 11:31:30;;;;;;;4.12;1.62;;;;;;;28.64;29.08;101018.77;1691688;82;25757;-66
2022/06/03 11:34:05;;;;;;;3.45;1.47;;;;;;;28.10;28.63;101007.41;1740525;82;27547;-67
2022/06/03 11:36:42;;;;;;;3.08;1.62;;;;;;;27.50;29.92;101005.34;1714239;83;25879;-69
2022/06/03 11:39:25;;;;;;;2.12;1.52;;;;;;;27.67;31.16;101011.34;1712369;83;25837;-67
2022/06/03 11:42:12;;;;;;;3.17;1.72;;;;;;;28.04;31.31;101002.87;1687652;83;25766;-68
2022/06/03 11:45:02;;;;;;;1.60;1.50;;;;;;;28.25;31.36;100999.72;1753872;80;25581;-70
2022/06/03 11:47:41;;;;;;;4.20;1.50;;;;;;;28.42;29.24;101004.28;1738184;82;27345;-67
2022/06/03 11:50:09;;;;;;;2.98;1.50;;;;;;;28.05;29.73;100992.56;1740823;82;25659;-66
2022/06/03 11:52:38;;;;;;;5.22;2.00;;;;;;;28.34;29.50;100992.27;1740731;82;25844;-68
2022/06/03 11:55:07;;;;;;;5.50;4.22;;;;;;;28.34;29.33;100997.22;1717620;83;25696;-67
2022/06/03 11:57:37;;;;;;;2.10;1.90;;;;;;;28.08;29.36;100992.53;1710428;83;25759;-67
2022/06/03 12:00:10;;;;;;;2.35;1.98;;;;;;;28.11;29.43;100992.29;1716798;83;28077;-69
2022/06/03 12:02:50;;;;;;;2.40;2.00;;;;;;;28.17;29.33;100985.09;1714802;83;25697;-66
2022/06/03 12:05:24;;;;;;;1.80;1.65;;;;;;;27.99;28.96;100978.92;1725384;82;25662;-67
2022/06/03 12:08:08;;;;;;;2.00;1.80;;;;;;;27.56;29.46;100980.06;1654573;84;26200;-66
2022/06/03 12:10:57;;;;;;;2.55;1.80;;;;;;;27.36;30.00;100978.43;1640215;86;25805;-67
2022/06/03 12:13:29;;;;;;;2.02;1.92;;;;;;;27.28;29.86;100988.00;1641104;86;28233;-66
2022/06/03 12:16:04;;;;;;;1.90;1.80;;;;;;;26.89;30.05;100981.48;1644723;86;25781;-66
2022/06/03 12:18:38;;;;;;;2.10;2.00;;;;;;;26.97;30.42;100972.51;1639319;86;25918;-66
2022/06/03 12:21:31;;;;;;;3.35;2.00;;;;;;;27.20;30.50;100971.98;1632148;86;25782;-68
2022/06/03 12:24:26;;;;;;;2.20;2.00;;;;;;;27.08;30.19;100962.14;1633340;86;25832;-66
2022/06/03 12:26:53;;;;;;;2.10;1.85;;;;;;;27.13;30.39;100959.54;1631851;86;27546;-65
2022/06/03 12:29:31;;;;;;;2.47;2.10;;;;;;;27.32;30.26;100963.80;1648374;86;26094;-65
2022/06/03 12:32:15;;;;;;;2.12;1.90;;;;;;;27.16;29.89;100958.73;1644518;86;25859;-65
2022/06/03 12:34:42;;;;;;;2.02;1.92;;;;;;;27.01;30.21;100953.86;1640088;86;27795;-67
2022/06/03 12:37:27;;;;;;;2.10;2.00;;;;;;;26.75;30.10;100957.38;1655048;86;25810;-67
2022/06/03 12:40:05;;;;;;;3.52;2.05;;;;;;;26.33;30.38;100954.16;1651522;86;27348;-66
2022/06/03 12:42:39;;;;;;;2.02;1.92;;;;;;;26.21;30.77;100949.84;1654872;86;25804;-66
2022/06/03 12:45:13;;;;;;;2.10;1.87;;;;;;;26.64;31.50;100952.47;1649257;85;25884;-68
2022/06/03 12:47:50;;;;;;;2.08;1.90;;;;;;;27.26;30.88;100951.50;1710623;83;25731;-69
2022/06/03 12:50:38;;;;;;;4.37;2.20;;;;;;;27.56;29.73;100951.67;1721533;82;25682;-68
2022/06/03 12:53:25;;;;;;;2.05;1.80;;;;;;;27.51;30.65;100942.39;1705615;83;27343;-69
2022/06/03 12:55:57;;;;;;;2.12;1.90;;;;;;;27.67;30.57;100943.84;1679400;85;25653;-67
2022/06/03 12:59:06;;;;;;;2.33;1.82;;;;;;;27.79;29.50;100948.91;1708648;83;25759;-65
2022/06/03 13:01:53;;;;;;;4.12;2.10;;;;;;;27.55;29.38;100943.17;1655601;85;25666;-65
2022/06/03 13:04:55;;;;;;;2.15;1.92;;;;;;;27.49;29.15;100953.73;1741826;82;25606;-65
2022/06/03 13:07:32;;;;;;;2.00;1.90;;;;;;;27.32;29.39;100954.85;1734299;81;27517;-66
2022/06/03 13:10:10;;;;;;;2.27;2.10;;;;;;;27.32;29.67;100955.46;1769260;81;26114;-65
2022/06/03 13:12:41;;;;;;;3.15;2.95;;;;;;;27.46;29.27;100946.22;1768103;81;25349;-66
2022/06/03 13:15:25;;;;;;;2.55;2.00;;;;;;;27.27;29.12;100946.92;1745053;81;25699;-65
2022/06/03 13:18:13;;;;;;;1.85;1.50;;;;;;;27.11;29.29;100940.51;1756769;81;25622;-66
2022/06/03 13:20:50;;;;;;;2.10;2.00;;;;;;;27.02;29.87;100939.58;1742015;81;29569;-66
2022/06/03 13:23:45;;;;;;;2.27;2.08;;;;;;;27.27;29.74;100946.92;1768757;81;27217;-66
2022/06/03 13:26:25;;;;;;;6.55;1.85;;;;;;;27.24;28.60;100929.69;1757299;81;25865;-65
2022/06/03 13:28:55;;;;;;;2.17;1.98;;;;;;;27.14;29.09;100934.72;1759994;81;25738;-65